sensor_id;sensor_type;location;lat;lon;timestamp;P1;durP1;ratioP1;P2;durP2;ratioP2
55350;SDS011;62194;49.480;10.986;2023-09-08T00:00:05;7.28;;;6.43;;
55350;SDS011;62194;49.480;10.986;2023-09-08T00:00:11;7.53;;;6.50;;
55350;SDS011;62194;49.480;10.986;2023-09-08T00:00:16;7.25;;;6.40;;
55350;SDS011;62194;49.480;10.986;2023-09-08T00:00:21;7.37;;;6.40;;
55350;SDS011;62194;49.480;10.986;2023-09-08T00:00:26;7.33;;;6.47;;
55350;SDS011;62194;49.480;10.986;2023-09-08T00:00:31;7.40;;;6.53;;
55350;SDS011;62194;49.480;10.986;2023-09-08T00:00:37;7.73;;;6.57;;
55350;SDS011;62194;49.480;10.986;2023-09-08T00:00:42;7.72;;;6.72;;
55350;SDS011;62194;49.480;10.986;2023-09-08T00:00:47;7.73;;;6.63;;
55350;SDS011;62194;49.480;10.986;2023-09-08T00:00:53;8.10;;;6.67;;
55350;SDS011;62194;49.480;10.986;2023-09-08T00:00:58;8.20;;;6.63;;
55350;SDS011;62194;49.480;10.986;2023-09-08T00:01:03;8.10;;;6.80;;
55350;SDS011;62194;49.480;10.986;2023-09-08T00:01:08;7.53;;;6.53;;
55350;SDS011;62194;49.480;10.986;2023-09-08T00:01:13;7.60;;;6.50;;
55350;SDS011;62194;49.480;10.986;2023-09-08T00:01:19;7.47;;;6.63;;
55350;SDS011;62194;49.480;10.986;2023-09-08T00:01:24;7.30;;;6.60;;
55350;SDS011;62194;49.480;10.986;2023-09-08T00:01:29;7.60;;;6.80;;
55350;SDS011;62194;49.480;10.986;2023-09-08T00:01:35;7.55;;;6.70;;
55350;SDS011;62194;49.480;10.986;2023-09-08T00:01:40;7.83;;;6.90;;
55350;SDS011;62194;49.480;10.986;2023-09-08T00:01:45;7.60;;;6.80;;
55350;SDS011;62194;49.480;10.986;2023-09-08T00:01:50;7.50;;;6.70;;
55350;SDS011;62194;49.480;10.986;2023-09-08T00:01:55;7.43;;;6.63;;
55350;SDS011;62194;49.480;10.986;2023-09-08T00:02:01;7.05;;;6.35;;
55350;SDS011;62194;49.480;10.986;2023-09-08T00:02:06;7.13;;;6.43;;
55350;SDS011;62194;49.480;10.986;2023-09-08T00:02:11;7.17;;;6.37;;
55350;SDS011;62194;49.480;10.986;2023-09-08T00:02:16;7.87;;;6.63;;
55350;SDS011;62194;49.480;10.986;2023-09-08T00:02:22;7.80;;;6.68;;
55350;SDS011;62194;49.480;10.986;2023-09-08T00:02:27;8.53;;;6.73;;
55350;SDS011;62194;49.480;10.986;2023-09-08T00:02:33;8.40;;;6.72;;
55350;SDS011;62194;49.480;10.986;2023-09-08T00:02:38;8.33;;;6.67;;
55350;SDS011;62194;49.480;10.986;2023-09-08T00:02:43;7.57;;;6.50;;
55350;SDS011;62194;49.480;10.986;2023-09-08T00:02:48;7.47;;;6.40;;
55350;SDS011;62194;49.480;10.986;2023-09-08T00:02:53;7.70;;;6.50;;
55350;SDS011;62194;49.480;10.986;2023-09-08T00:02:58;7.53;;;6.60;;
55350;SDS011;62194;49.480;10.986;2023-09-08T00:03:04;7.60;;;6.60;;
55350;SDS011;62194;49.480;10.986;2023-09-08T00:03:09;7.67;;;6.70;;
55350;SDS011;62194;49.480;10.986;2023-09-08T00:03:14;7.83;;;6.77;;
55350;SDS011;62194;49.480;10.986;2023-09-08T00:03:19;8.03;;;6.73;;
55350;SDS011;62194;49.480;10.986;2023-09-08T00:03:26;7.54;;;6.58;;
55350;SDS011;62194;49.480;10.986;2023-09-08T00:03:31;7.30;;;6.40;;
55350;SDS011;62194;49.480;10.986;2023-09-08T00:03:36;7.40;;;6.35;;
55350;SDS011;62194;49.480;10.986;2023-09-08T00:03:42;7.40;;;6.27;;
55350;SDS011;62194;49.480;10.986;2023-09-08T00:03:47;7.07;;;6.37;;
55350;SDS011;62194;49.480;10.986;2023-09-08T00:03:52;7.10;;;6.40;;
55350;SDS011;62194;49.480;10.986;2023-09-08T00:03:57;7.33;;;6.53;;
55350;SDS011;62194;49.480;10.986;2023-09-08T00:04:02;7.68;;;6.82;;
55350;SDS011;62194;49.480;10.986;2023-09-08T00:04:09;8.40;;;6.93;;
55350;SDS011;62194;49.480;10.986;2023-09-08T00:04:14;8.40;;;7.10;;
55350;SDS011;62194;49.480;10.986;2023-09-08T00:04:19;8.73;;;6.93;;
55350;SDS011;62194;49.480;10.986;2023-09-08T00:04:25;9.17;;;6.97;;
55350;SDS011;62194;49.480;10.986;2023-09-08T00:04:31;9.00;;;6.80;;
55350;SDS011;62194;49.480;10.986;2023-09-08T00:04:38;8.83;;;6.70;;
55350;SDS011;62194;49.480;10.986;2023-09-08T00:04:43;9.13;;;6.53;;
55350;SDS011;62194;49.480;10.986;2023-09-08T00:04:48;9.55;;;6.65;;
55350;SDS011;62194;49.480;10.986;2023-09-08T00:04:54;9.57;;;6.63;;
55350;SDS011;62194;49.480;10.986;2023-09-08T00:04:59;9.30;;;6.67;;
55350;SDS011;62194;49.480;10.986;2023-09-08T00:05:04;9.30;;;6.90;;
55350;SDS011;62194;49.480;10.986;2023-09-08T00:05:09;9.00;;;6.90;;
55350;SDS011;62194;49.480;10.986;2023-09-08T00:05:15;8.55;;;6.95;;
55350;SDS011;62194;49.480;10.986;2023-09-08T00:05:20;7.85;;;6.80;;
55350;SDS011;62194;49.480;10.986;2023-09-08T00:05:25;7.73;;;6.73;;
55350;SDS011;62194;49.480;10.986;2023-09-08T00:05:31;7.60;;;6.70;;
55350;SDS011;62194;49.480;10.986;2023-09-08T00:05:36;7.63;;;6.60;;
55350;SDS011;62194;49.480;10.986;2023-09-08T00:05:41;7.53;;;6.53;;
55350;SDS011;62194;49.480;10.986;2023-09-08T00:05:46;7.75;;;6.63;;
55350;SDS011;62194;49.480;10.986;2023-09-08T00:05:51;7.70;;;6.70;;
55350;SDS011;62194;49.480;10.986;2023-09-08T00:05:57;7.63;;;6.80;;
55350;SDS011;62194;49.480;10.986;2023-09-08T00:06:02;7.57;;;6.60;;
55350;SDS011;62194;49.480;10.986;2023-09-08T00:06:07;7.37;;;6.60;;
55350;SDS011;62194;49.480;10.986;2023-09-08T00:06:12;7.15;;;6.45;;
55350;SDS011;62194;49.480;10.986;2023-09-08T00:06:17;7.33;;;6.60;;
55350;SDS011;62194;49.480;10.986;2023-09-08T00:06:23;7.20;;;6.50;;
55350;SDS011;62194;49.480;10.986;2023-09-08T00:06:28;7.28;;;6.53;;
55350;SDS011;62194;49.480;10.986;2023-09-08T00:06:33;7.23;;;6.50;;
55350;SDS011;62194;49.480;10.986;2023-09-08T00:06:38;7.20;;;6.50;;
55350;SDS011;62194;49.480;10.986;2023-09-08T00:06:43;7.47;;;6.67;;
55350;SDS011;62194;49.480;10.986;2023-09-08T00:06:49;7.07;;;6.37;;
55350;SDS011;62194;49.480;10.986;2023-09-08T00:06:54;7.07;;;6.37;;
55350;SDS011;62194;49.480;10.986;2023-09-08T00:06:59;7.13;;;6.43;;
55350;SDS011;62194;49.480;10.986;2023-09-08T00:07:05;7.23;;;6.53;;
55350;SDS011;62194;49.480;10.986;2023-09-08T00:07:10;7.43;;;6.63;;
55350;SDS011;62194;49.480;10.986;2023-09-08T00:07:15;7.72;;;6.90;;
55350;SDS011;62194;49.480;10.986;2023-09-08T00:07:20;8.07;;;7.00;;
55350;SDS011;62194;49.480;10.986;2023-09-08T00:07:25;8.10;;;7.13;;
55350;SDS011;62194;49.480;10.986;2023-09-08T00:07:31;8.37;;;7.10;;
55350;SDS011;62194;49.480;10.986;2023-09-08T00:07:36;9.07;;;7.10;;
55350;SDS011;62194;49.480;10.986;2023-09-08T00:07:41;9.20;;;6.97;;
55350;SDS011;62194;49.480;10.986;2023-09-08T00:07:48;8.90;;;6.80;;
55350;SDS011;62194;49.480;10.986;2023-09-08T00:07:53;10.00;;;6.77;;
55350;SDS011;62194;49.480;10.986;2023-09-08T00:07:58;9.77;;;6.47;;
55350;SDS011;62194;49.480;10.986;2023-09-08T00:08:03;10.33;;;6.57;;
55350;SDS011;62194;49.480;10.986;2023-09-08T00:08:08;10.37;;;6.63;;
55350;SDS011;62194;49.480;10.986;2023-09-08T00:08:14;11.10;;;6.73;;
55350;SDS011;62194;49.480;10.986;2023-09-08T00:08:19;11.07;;;6.60;;
55350;SDS011;62194;49.480;10.986;2023-09-08T00:08:25;10.40;;;6.63;;
55350;SDS011;62194;49.480;10.986;2023-09-08T00:08:30;10.67;;;6.87;;
55350;SDS011;62194;49.480;10.986;2023-09-08T00:08:35;9.63;;;6.90;;
55350;SDS011;62194;49.480;10.986;2023-09-08T00:08:41;8.80;;;6.73;;
55350;SDS011;62194;49.480;10.986;2023-09-08T00:08:46;7.85;;;6.68;;
55350;SDS011;62194;49.480;10.986;2023-09-08T00:08:51;8.03;;;7.00;;
55350;SDS011;62194;49.480;10.986;2023-09-08T00:08:56;8.17;;;6.93;;
55350;SDS011;62194;49.480;10.986;2023-09-08T00:09:02;8.03;;;7.00;;
55350;SDS011;62194;49.480;10.986;2023-09-08T00:09:07;8.25;;;7.20;;
55350;SDS011;62194;49.480;10.986;2023-09-08T00:09:13;8.40;;;7.30;;
55350;SDS011;62194;49.480;10.986;2023-09-08T00:09:18;8.57;;;7.25;;
55350;SDS011;62194;49.480;10.986;2023-09-08T00:09:23;8.47;;;7.20;;
55350;SDS011;62194;49.480;10.986;2023-09-08T00:09:29;8.13;;;7.23;;
55350;SDS011;62194;49.480;10.986;2023-09-08T00:09:34;9.10;;;7.00;;
55350;SDS011;62194;49.480;10.986;2023-09-08T00:09:39;10.07;;;7.07;;
55350;SDS011;62194;49.480;10.986;2023-09-08T00:09:44;10.40;;;7.23;;
55350;SDS011;62194;49.480;10.986;2023-09-08T00:09:49;10.27;;;7.13;;
55350;SDS011;62194;49.480;10.986;2023-09-08T00:09:55;9.90;;;7.10;;
55350;SDS011;62194;49.480;10.986;2023-09-08T00:10:00;10.00;;;7.13;;
55350;SDS011;62194;49.480;10.986;2023-09-08T00:10:05;9.77;;;7.40;;
55350;SDS011;62194;49.480;10.986;2023-09-08T00:10:12;9.03;;;7.30;;
55350;SDS011;62194;49.480;10.986;2023-09-08T00:10:17;9.32;;;7.22;;
55350;SDS011;62194;49.480;10.986;2023-09-08T00:10:22;9.43;;;7.33;;
55350;SDS011;62194;49.480;10.986;2023-09-08T00:10:27;9.27;;;7.33;;
55350;SDS011;62194;49.480;10.986;2023-09-08T00:10:32;8.87;;;7.33;;
55350;SDS011;62194;49.480;10.986;2023-09-08T00:10:37;8.53;;;7.20;;
55350;SDS011;62194;49.480;10.986;2023-09-08T00:10:43;8.47;;;7.30;;
55350;SDS011;62194;49.480;10.986;2023-09-08T00:10:48;8.20;;;7.28;;
55350;SDS011;62194;49.480;10.986;2023-09-08T00:10:53;8.17;;;7.10;;
55350;SDS011;62194;49.480;10.986;2023-09-08T00:10:58;8.73;;;7.07;;
55350;SDS011;62194;49.480;10.986;2023-09-08T00:11:03;8.33;;;6.90;;
55350;SDS011;62194;49.480;10.986;2023-09-08T00:11:12;8.27;;;6.80;;
55350;SDS011;62194;49.480;10.986;2023-09-08T00:11:17;8.63;;;7.00;;
55350;SDS011;62194;49.480;10.986;2023-09-08T00:11:23;9.45;;;7.18;;
55350;SDS011;62194;49.480;10.986;2023-09-08T00:11:28;10.13;;;7.47;;
55350;SDS011;62194;49.480;10.986;2023-09-08T00:11:33;10.50;;;7.60;;
55350;SDS011;62194;49.480;10.986;2023-09-08T00:11:39;11.02;;;7.63;;
55350;SDS011;62194;49.480;10.986;2023-09-08T00:11:44;11.43;;;7.57;;
55350;SDS011;62194;49.480;10.986;2023-09-08T00:11:49;11.03;;;7.33;;
55350;SDS011;62194;49.480;10.986;2023-09-08T00:11:54;10.23;;;7.13;;
55350;SDS011;62194;49.480;10.986;2023-09-08T00:11:59;8.90;;;6.83;;
55350;SDS011;62194;49.480;10.986;2023-09-08T00:12:04;8.35;;;6.82;;
55350;SDS011;62194;49.480;10.986;2023-09-08T00:12:10;8.00;;;6.77;;
55350;SDS011;62194;49.480;10.986;2023-09-08T00:12:15;7.33;;;6.60;;
55350;SDS011;62194;49.480;10.986;2023-09-08T00:12:20;7.53;;;6.73;;
55350;SDS011;62194;49.480;10.986;2023-09-08T00:12:27;7.68;;;6.70;;
55350;SDS011;62194;49.480;10.986;2023-09-08T00:12:32;7.70;;;6.70;;
55350;SDS011;62194;49.480;10.986;2023-09-08T00:12:38;7.90;;;6.85;;
55350;SDS011;62194;49.480;10.986;2023-09-08T00:12:44;8.07;;;6.73;;
55350;SDS011;62194;49.480;10.986;2023-09-08T00:12:49;7.97;;;6.87;;
55350;SDS011;62194;49.480;10.986;2023-09-08T00:12:54;7.73;;;6.93;;
55350;SDS011;62194;49.480;10.986;2023-09-08T00:12:59;7.75;;;6.97;;
55350;SDS011;62194;49.480;10.986;2023-09-08T00:13:05;7.53;;;6.83;;
55350;SDS011;62194;49.480;10.986;2023-09-08T00:13:10;7.70;;;6.93;;
55350;SDS011;62194;49.480;10.986;2023-09-08T00:13:15;8.30;;;7.10;;
55350;SDS011;62194;49.480;10.986;2023-09-08T00:13:20;8.60;;;6.90;;
55350;SDS011;62194;49.480;10.986;2023-09-08T00:13:25;9.32;;;6.93;;
55350;SDS011;62194;49.480;10.986;2023-09-08T00:13:30;9.67;;;6.83;;
55350;SDS011;62194;49.480;10.986;2023-09-08T00:13:36;9.93;;;6.83;;
55350;SDS011;62194;49.480;10.986;2023-09-08T00:13:41;9.83;;;6.60;;
55350;SDS011;62194;49.480;10.986;2023-09-08T00:13:46;8.43;;;6.43;;
55350;SDS011;62194;49.480;10.986;2023-09-08T00:13:51;8.02;;;6.40;;
55350;SDS011;62194;49.480;10.986;2023-09-08T00:13:57;7.73;;;6.50;;
55350;SDS011;62194;49.480;10.986;2023-09-08T00:14:02;7.87;;;6.50;;
55350;SDS011;62194;49.480;10.986;2023-09-08T00:14:08;7.53;;;6.53;;
55350;SDS011;62194;49.480;10.986;2023-09-08T00:14:13;7.45;;;6.65;;
55350;SDS011;62194;49.480;10.986;2023-09-08T00:14:18;7.47;;;6.67;;
55350;SDS011;62194;49.480;10.986;2023-09-08T00:14:24;7.60;;;6.80;;
55350;SDS011;62194;49.480;10.986;2023-09-08T00:14:29;7.50;;;6.70;;
55350;SDS011;62194;49.480;10.986;2023-09-08T00:14:34;7.40;;;6.70;;
55350;SDS011;62194;49.480;10.986;2023-09-08T00:14:39;7.37;;;6.60;;
55350;SDS011;62194;49.480;10.986;2023-09-08T00:14:44;8.02;;;6.68;;
55350;SDS011;62194;49.480;10.986;2023-09-08T00:14:50;8.40;;;6.80;;
55350;SDS011;62194;49.480;10.986;2023-09-08T00:14:55;8.37;;;6.80;;
55350;SDS011;62194;49.480;10.986;2023-09-08T00:15:00;8.77;;;6.97;;
55350;SDS011;62194;49.480;10.986;2023-09-08T00:15:06;9.20;;;7.10;;
55350;SDS011;62194;49.480;10.986;2023-09-08T00:15:11;9.17;;;7.23;;
55350;SDS011;62194;49.480;10.986;2023-09-08T00:15:16;8.93;;;7.07;;
55350;SDS011;62194;49.480;10.986;2023-09-08T00:15:21;9.10;;;6.90;;
55350;SDS011;62194;49.480;10.986;2023-09-08T00:15:26;9.00;;;6.73;;
55350;SDS011;62194;49.480;10.986;2023-09-08T00:15:34;8.70;;;6.53;;
55350;SDS011;62194;49.480;10.986;2023-09-08T00:15:40;8.90;;;6.40;;
55350;SDS011;62194;49.480;10.986;2023-09-08T00:15:45;8.43;;;6.30;;
55350;SDS011;62194;49.480;10.986;2023-09-08T00:15:50;8.03;;;6.27;;
55350;SDS011;62194;49.480;10.986;2023-09-08T00:15:55;8.63;;;6.30;;
55350;SDS011;62194;49.480;10.986;2023-09-08T00:16:00;8.70;;;6.40;;
55350;SDS011;62194;49.480;10.986;2023-09-08T00:16:06;8.03;;;6.37;;
55350;SDS011;62194;49.480;10.986;2023-09-08T00:16:12;7.87;;;6.40;;
55350;SDS011;62194;49.480;10.986;2023-09-08T00:16:17;8.23;;;6.50;;
55350;SDS011;62194;49.480;10.986;2023-09-08T00:16:23;8.37;;;6.67;;
55350;SDS011;62194;49.480;10.986;2023-09-08T00:16:28;7.90;;;6.80;;
55350;SDS011;62194;49.480;10.986;2023-09-08T00:16:34;7.72;;;6.70;;
55350;SDS011;62194;49.480;10.986;2023-09-08T00:16:39;7.53;;;6.67;;
55350;SDS011;62194;49.480;10.986;2023-09-08T00:16:47;7.53;;;6.70;;
55350;SDS011;62194;49.480;10.986;2023-09-08T00:16:53;7.47;;;6.57;;
55350;SDS011;62194;49.480;10.986;2023-09-08T00:17:01;7.83;;;6.63;;
55350;SDS011;62194;49.480;10.986;2023-09-08T00:17:06;7.93;;;6.60;;
55350;SDS011;62194;49.480;10.986;2023-09-08T00:17:12;8.10;;;6.60;;
55350;SDS011;62194;49.480;10.986;2023-09-08T00:17:17;7.75;;;6.57;;
55350;SDS011;62194;49.480;10.986;2023-09-08T00:17:22;7.50;;;6.47;;
55350;SDS011;62194;49.480;10.986;2023-09-08T00:17:27;7.17;;;6.47;;
55350;SDS011;62194;49.480;10.986;2023-09-08T00:17:32;7.00;;;6.30;;
55350;SDS011;62194;49.480;10.986;2023-09-08T00:17:38;7.10;;;6.40;;
55350;SDS011;62194;49.480;10.986;2023-09-08T00:17:43;7.10;;;6.40;;
55350;SDS011;62194;49.480;10.986;2023-09-08T00:17:48;7.10;;;6.40;;
55350;SDS011;62194;49.480;10.986;2023-09-08T00:17:53;7.17;;;6.47;;
55350;SDS011;62194;49.480;10.986;2023-09-08T00:17:58;7.13;;;6.43;;
55350;SDS011;62194;49.480;10.986;2023-09-08T00:18:04;7.15;;;6.45;;
55350;SDS011;62194;49.480;10.986;2023-09-08T00:18:09;7.23;;;6.47;;
55350;SDS011;62194;49.480;10.986;2023-09-08T00:18:14;7.27;;;6.47;;
55350;SDS011;62194;49.480;10.986;2023-09-08T00:18:20;7.38;;;6.57;;
55350;SDS011;62194;49.480;10.986;2023-09-08T00:18:26;7.47;;;6.60;;
55350;SDS011;62194;49.480;10.986;2023-09-08T00:18:31;7.13;;;6.43;;
55350;SDS011;62194;49.480;10.986;2023-09-08T00:18:36;7.20;;;6.50;;
55350;SDS011;62194;49.480;10.986;2023-09-08T00:18:41;7.00;;;6.30;;
55350;SDS011;62194;49.480;10.986;2023-09-08T00:18:46;7.00;;;6.30;;
55350;SDS011;62194;49.480;10.986;2023-09-08T00:18:52;7.13;;;6.43;;
55350;SDS011;62194;49.480;10.986;2023-09-08T00:18:58;7.33;;;6.53;;
55350;SDS011;62194;49.480;10.986;2023-09-08T00:19:03;7.50;;;6.70;;
55350;SDS011;62194;49.480;10.986;2023-09-08T00:19:09;7.83;;;6.87;;
55350;SDS011;62194;49.480;10.986;2023-09-08T00:19:15;7.82;;;6.86;;
55350;SDS011;62194;49.480;10.986;2023-09-08T00:19:20;7.50;;;6.70;;
55350;SDS011;62194;49.480;10.986;2023-09-08T00:19:26;7.53;;;6.73;;
55350;SDS011;62194;49.480;10.986;2023-09-08T00:19:31;7.90;;;6.90;;
55350;SDS011;62194;49.480;10.986;2023-09-08T00:19:36;7.93;;;6.87;;
55350;SDS011;62194;49.480;10.986;2023-09-08T00:19:41;8.27;;;6.97;;
55350;SDS011;62194;49.480;10.986;2023-09-08T00:19:46;8.43;;;6.90;;
55350;SDS011;62194;49.480;10.986;2023-09-08T00:19:51;8.50;;;7.03;;
55350;SDS011;62194;49.480;10.986;2023-09-08T00:19:57;9.05;;;7.00;;
55350;SDS011;62194;49.480;10.986;2023-09-08T00:20:03;8.87;;;6.90;;
55350;SDS011;62194;49.480;10.986;2023-09-08T00:20:13;8.30;;;6.72;;
55350;SDS011;62194;49.480;10.986;2023-09-08T00:20:18;8.10;;;6.53;;
55350;SDS011;62194;49.480;10.986;2023-09-08T00:20:24;7.93;;;6.30;;
55350;SDS011;62194;49.480;10.986;2023-09-08T00:20:29;6.77;;;6.00;;
55350;SDS011;62194;49.480;10.986;2023-09-08T00:20:34;6.80;;;5.93;;
55350;SDS011;62194;49.480;10.986;2023-09-08T00:20:39;7.50;;;6.13;;
55350;SDS011;62194;49.480;10.986;2023-09-08T00:20:46;7.68;;;6.16;;
55350;SDS011;62194;49.480;10.986;2023-09-08T00:20:51;7.55;;;6.22;;
55350;SDS011;62194;49.480;10.986;2023-09-08T00:20:57;7.87;;;6.47;;
55350;SDS011;62194;49.480;10.986;2023-09-08T00:21:02;8.07;;;6.60;;
55350;SDS011;62194;49.480;10.986;2023-09-08T00:21:07;7.87;;;6.63;;
55350;SDS011;62194;49.480;10.986;2023-09-08T00:21:12;8.30;;;6.60;;
55350;SDS011;62194;49.480;10.986;2023-09-08T00:21:17;9.17;;;6.70;;
55350;SDS011;62194;49.480;10.986;2023-09-08T00:21:23;9.80;;;6.78;;
55350;SDS011;62194;49.480;10.986;2023-09-08T00:21:28;10.10;;;6.90;;
55350;SDS011;62194;49.480;10.986;2023-09-08T00:21:33;11.20;;;7.20;;
55350;SDS011;62194;49.480;10.986;2023-09-08T00:21:38;10.63;;;7.23;;
55350;SDS011;62194;49.480;10.986;2023-09-08T00:21:44;10.27;;;7.30;;
55350;SDS011;62194;49.480;10.986;2023-09-08T00:21:49;9.27;;;7.37;;
55350;SDS011;62194;49.480;10.986;2023-09-08T00:21:54;8.53;;;7.30;;
55350;SDS011;62194;49.480;10.986;2023-09-08T00:21:59;8.67;;;7.23;;
55350;SDS011;62194;49.480;10.986;2023-09-08T00:22:05;8.30;;;7.00;;
55350;SDS011;62194;49.480;10.986;2023-09-08T00:22:13;8.25;;;7.13;;
55350;SDS011;62194;49.480;10.986;2023-09-08T00:22:19;8.00;;;7.00;;
55350;SDS011;62194;49.480;10.986;2023-09-08T00:22:25;7.92;;;6.90;;
55350;SDS011;62194;49.480;10.986;2023-09-08T00:22:30;7.73;;;6.87;;
55350;SDS011;62194;49.480;10.986;2023-09-08T00:22:38;7.50;;;6.80;;
55350;SDS011;62194;49.480;10.986;2023-09-08T00:22:43;7.27;;;6.55;;
55350;SDS011;62194;49.480;10.986;2023-09-08T00:22:48;7.43;;;6.53;;
55350;SDS011;62194;49.480;10.986;2023-09-08T00:22:53;7.57;;;6.60;;
55350;SDS011;62194;49.480;10.986;2023-09-08T00:22:58;7.53;;;6.65;;
55350;SDS011;62194;49.480;10.986;2023-09-08T00:23:03;7.63;;;6.87;;
55350;SDS011;62194;49.480;10.986;2023-09-08T00:23:09;7.53;;;6.80;;
55350;SDS011;62194;49.480;10.986;2023-09-08T00:23:15;7.63;;;6.90;;
55350;SDS011;62194;49.480;10.986;2023-09-08T00:23:20;7.70;;;7.00;;
55350;SDS011;62194;49.480;10.986;2023-09-08T00:23:28;7.63;;;6.93;;
55350;SDS011;62194;49.480;10.986;2023-09-08T00:23:34;8.20;;;6.82;;
55350;SDS011;62194;49.480;10.986;2023-09-08T00:23:39;9.00;;;6.70;;
55350;SDS011;62194;49.480;10.986;2023-09-08T00:23:44;9.50;;;6.70;;
55350;SDS011;62194;49.480;10.986;2023-09-08T00:23:49;9.30;;;6.60;;
55350;SDS011;62194;49.480;10.986;2023-09-08T00:23:56;9.32;;;6.50;;
55350;SDS011;62194;49.480;10.986;2023-09-08T00:24:01;8.73;;;6.53;;
55350;SDS011;62194;49.480;10.986;2023-09-08T00:24:08;8.77;;;6.60;;
55350;SDS011;62194;49.480;10.986;2023-09-08T00:24:13;7.75;;;6.60;;
55350;SDS011;62194;49.480;10.986;2023-09-08T00:24:18;7.82;;;6.50;;
55350;SDS011;62194;49.480;10.986;2023-09-08T00:24:23;7.73;;;6.50;;
55350;SDS011;62194;49.480;10.986;2023-09-08T00:24:29;7.83;;;6.57;;
55350;SDS011;62194;49.480;10.986;2023-09-08T00:24:34;7.80;;;6.60;;
55350;SDS011;62194;49.480;10.986;2023-09-08T00:24:39;7.93;;;6.63;;
55350;SDS011;62194;49.480;10.986;2023-09-08T00:24:44;7.93;;;6.60;;
55350;SDS011;62194;49.480;10.986;2023-09-08T00:24:49;8.53;;;6.80;;
55350;SDS011;62194;49.480;10.986;2023-09-08T00:24:55;8.43;;;6.57;;
55350;SDS011;62194;49.480;10.986;2023-09-08T00:25:00;8.00;;;6.32;;
55350;SDS011;62194;49.480;10.986;2023-09-08T00:25:05;8.03;;;6.47;;
55350;SDS011;62194;49.480;10.986;2023-09-08T00:25:10;8.00;;;6.50;;
55350;SDS011;62194;49.480;10.986;2023-09-08T00:25:16;7.67;;;6.50;;
55350;SDS011;62194;49.480;10.986;2023-09-08T00:25:21;7.45;;;6.63;;
55350;SDS011;62194;49.480;10.986;2023-09-08T00:25:26;7.67;;;6.70;;
55350;SDS011;62194;49.480;10.986;2023-09-08T00:25:31;8.03;;;6.70;;
55350;SDS011;62194;49.480;10.986;2023-09-08T00:25:36;8.17;;;6.53;;
55350;SDS011;62194;49.480;10.986;2023-09-08T00:25:42;8.47;;;6.60;;
55350;SDS011;62194;49.480;10.986;2023-09-08T00:25:48;8.57;;;6.63;;
55350;SDS011;62194;49.480;10.986;2023-09-08T00:25:53;8.63;;;6.57;;
55350;SDS011;62194;49.480;10.986;2023-09-08T00:25:59;8.27;;;6.63;;
55350;SDS011;62194;49.480;10.986;2023-09-08T00:26:04;7.80;;;6.80;;
55350;SDS011;62194;49.480;10.986;2023-09-08T00:26:09;7.73;;;6.70;;
55350;SDS011;62194;49.480;10.986;2023-09-08T00:26:14;7.30;;;6.57;;
55350;SDS011;62194;49.480;10.986;2023-09-08T00:26:20;7.10;;;6.40;;
55350;SDS011;62194;49.480;10.986;2023-09-08T00:26:25;7.03;;;6.32;;
55350;SDS011;62194;49.480;10.986;2023-09-08T00:26:32;7.37;;;6.47;;
55350;SDS011;62194;49.480;10.986;2023-09-08T00:26:37;7.60;;;6.60;;
55350;SDS011;62194;49.480;10.986;2023-09-08T00:26:42;7.70;;;6.73;;
55350;SDS011;62194;49.480;10.986;2023-09-08T00:26:48;8.43;;;6.90;;
55350;SDS011;62194;49.480;10.986;2023-09-08T00:26:53;8.98;;;7.05;;
55350;SDS011;62194;49.480;10.986;2023-09-08T00:26:58;9.10;;;7.03;;
55350;SDS011;62194;49.480;10.986;2023-09-08T00:27:03;8.87;;;6.80;;
55350;SDS011;62194;49.480;10.986;2023-09-08T00:27:08;9.13;;;6.80;;
55350;SDS011;62194;49.480;10.986;2023-09-08T00:27:14;9.50;;;6.78;;
55350;SDS011;62194;49.480;10.986;2023-09-08T00:27:19;9.27;;;6.80;;
55350;SDS011;62194;49.480;10.986;2023-09-08T00:27:25;9.50;;;6.80;;
55350;SDS011;62194;49.480;10.986;2023-09-08T00:27:30;9.00;;;6.55;;
55350;SDS011;62194;49.480;10.986;2023-09-08T00:27:36;8.93;;;6.50;;
55350;SDS011;62194;49.480;10.986;2023-09-08T00:27:41;8.83;;;6.37;;
55350;SDS011;62194;49.480;10.986;2023-09-08T00:27:47;9.48;;;6.47;;
55350;SDS011;62194;49.480;10.986;2023-09-08T00:27:52;9.03;;;6.43;;
55350;SDS011;62194;49.480;10.986;2023-09-08T00:27:57;8.80;;;6.50;;
55350;SDS011;62194;49.480;10.986;2023-09-08T00:28:02;8.20;;;6.50;;
55350;SDS011;62194;49.480;10.986;2023-09-08T00:28:08;8.02;;;6.45;;
55350;SDS011;62194;49.480;10.986;2023-09-08T00:28:13;7.80;;;6.53;;
55350;SDS011;62194;49.480;10.986;2023-09-08T00:28:18;7.00;;;6.30;;
55350;SDS011;62194;49.480;10.986;2023-09-08T00:28:23;7.40;;;6.40;;
55350;SDS011;62194;49.480;10.986;2023-09-08T00:28:28;7.77;;;6.70;;
55350;SDS011;62194;49.480;10.986;2023-09-08T00:28:34;7.80;;;6.80;;
55350;SDS011;62194;49.480;10.986;2023-09-08T00:28:39;8.03;;;6.77;;
55350;SDS011;62194;49.480;10.986;2023-09-08T00:28:44;7.70;;;6.80;;
55350;SDS011;62194;49.480;10.986;2023-09-08T00:28:49;7.77;;;6.90;;
55350;SDS011;62194;49.480;10.986;2023-09-08T00:28:54;7.60;;;6.73;;
55350;SDS011;62194;49.480;10.986;2023-09-08T00:29:00;7.57;;;6.60;;
55350;SDS011;62194;49.480;10.986;2023-09-08T00:29:05;7.57;;;6.50;;
55350;SDS011;62194;49.480;10.986;2023-09-08T00:29:10;7.17;;;6.40;;
55350;SDS011;62194;49.480;10.986;2023-09-08T00:29:15;7.13;;;6.37;;
55350;SDS011;62194;49.480;10.986;2023-09-08T00:29:20;7.40;;;6.43;;
55350;SDS011;62194;49.480;10.986;2023-09-08T00:29:27;7.43;;;6.40;;
55350;SDS011;62194;49.480;10.986;2023-09-08T00:29:32;7.82;;;6.48;;
55350;SDS011;62194;49.480;10.986;2023-09-08T00:29:37;8.70;;;6.67;;
55350;SDS011;62194;49.480;10.986;2023-09-08T00:29:42;8.93;;;6.60;;
55350;SDS011;62194;49.480;10.986;2023-09-08T00:29:47;8.40;;;6.47;;
55350;SDS011;62194;49.480;10.986;2023-09-08T00:29:52;8.45;;;6.40;;
55350;SDS011;62194;49.480;10.986;2023-09-08T00:29:58;8.33;;;6.20;;
55350;SDS011;62194;49.480;10.986;2023-09-08T00:30:03;7.63;;;6.23;;
55350;SDS011;62194;49.480;10.986;2023-09-08T00:30:08;7.43;;;6.23;;
55350;SDS011;62194;49.480;10.986;2023-09-08T00:30:14;7.55;;;6.30;;
55350;SDS011;62194;49.480;10.986;2023-09-08T00:30:19;7.53;;;6.30;;
55350;SDS011;62194;49.480;10.986;2023-09-08T00:30:24;7.72;;;6.50;;
55350;SDS011;62194;49.480;10.986;2023-09-08T00:30:29;7.70;;;6.77;;
55350;SDS011;62194;49.480;10.986;2023-09-08T00:30:35;7.50;;;6.70;;
55350;SDS011;62194;49.480;10.986;2023-09-08T00:30:40;7.40;;;6.60;;
55350;SDS011;62194;49.480;10.986;2023-09-08T00:30:45;7.30;;;6.60;;
55350;SDS011;62194;49.480;10.986;2023-09-08T00:30:50;7.37;;;6.60;;
55350;SDS011;62194;49.480;10.986;2023-09-08T00:30:55;7.27;;;6.47;;
55350;SDS011;62194;49.480;10.986;2023-09-08T00:31:00;7.80;;;6.40;;
55350;SDS011;62194;49.480;10.986;2023-09-08T00:31:06;8.30;;;6.50;;
55350;SDS011;62194;49.480;10.986;2023-09-08T00:31:11;8.70;;;6.50;;
55350;SDS011;62194;49.480;10.986;2023-09-08T00:31:16;8.83;;;6.50;;
55350;SDS011;62194;49.480;10.986;2023-09-08T00:31:21;8.60;;;6.57;;
55350;SDS011;62194;49.480;10.986;2023-09-08T00:31:26;8.00;;;6.35;;
55350;SDS011;62194;49.480;10.986;2023-09-08T00:31:31;7.43;;;6.20;;
55350;SDS011;62194;49.480;10.986;2023-09-08T00:31:37;7.28;;;6.20;;
55350;SDS011;62194;49.480;10.986;2023-09-08T00:31:43;7.00;;;6.30;;
55350;SDS011;62194;49.480;10.986;2023-09-08T00:31:48;7.13;;;6.43;;
55350;SDS011;62194;49.480;10.986;2023-09-08T00:31:53;7.40;;;6.70;;
55350;SDS011;62194;49.480;10.986;2023-09-08T00:31:58;8.15;;;6.97;;